Burnham, Illinois
Current Conditions -  °F | °C
As of 2:55 AM on Monday 22 Dec 2014 (Local Time) from KGYY Reporting Station
Clear Clear  
Wind Chill: 26°   Ceiling: Unl
Heat Index: 33°   Visibility: 7mi
Dew Point: 25°   Wind: 8mph
Humidity: 73%   Direction: 140°SE
Pressure: 29.99"   Gusts: NA
Location:  41.6563°N, 87.5444°W
Report Text: KGYY 220855Z AUTO 14007KT 7SM CLR 00/M04 A2999 RMK AO2 T00041040
Loading
Personal Weather Stations






























Interactive Weather Map New forecast layout! Learn more

10-Day Weather Forecast

Advertisements
Track Severe Weather on mobile